createdAt,value
2018-12-07T04:17:12.780Z,0.60
2018-12-07T04:19:41.459Z,0.40
2018-12-07T04:22:09.751Z,0.50
2018-12-07T04:24:38.083Z,0.60
2018-12-07T04:27:07.411Z,0.50
2018-12-07T04:34:39.100Z,0.50
2018-12-07T04:37:07.537Z,0.60
2018-12-07T04:39:36.404Z,0.43
2018-12-07T04:42:05.003Z,0.50
2018-12-07T04:44:33.563Z,0.53
2018-12-07T04:47:01.834Z,0.50
2018-12-07T04:49:30.194Z,0.43
2018-12-07T04:51:58.538Z,0.57
2018-12-07T04:54:29.906Z,0.40
2018-12-07T04:56:58.202Z,0.43
2018-12-07T04:59:26.501Z,0.50
2018-12-07T05:01:54.985Z,0.50
2018-12-07T05:04:23.948Z,0.55
2018-12-07T05:06:52.577Z,0.50
2018-12-07T05:09:21.251Z,0.60
2018-12-07T05:11:49.567Z,0.53
2018-12-07T05:14:18.536Z,0.50
2018-12-07T05:16:47.201Z,0.43
2018-12-07T05:19:16.205Z,0.40
2018-12-07T05:21:44.494Z,0.50
2018-12-07T05:24:13.150Z,0.40
2018-12-07T05:26:41.675Z,0.40
2018-12-07T05:29:09.976Z,0.50
2018-12-07T05:31:38.432Z,0.40
2018-12-07T05:34:06.794Z,0.43
2018-12-07T05:36:35.305Z,0.50
2018-12-07T05:39:07.037Z,0.40
2018-12-07T05:41:35.647Z,0.50
2018-12-07T05:44:04.369Z,0.40
2018-12-07T05:46:33.515Z,0.40
2018-12-07T05:49:02.099Z,0.57
2018-12-07T05:51:30.643Z,0.50
2018-12-07T05:53:58.946Z,0.40
2018-12-07T05:56:27.459Z,0.50
2018-12-07T05:58:56.146Z,0.40
2018-12-07T06:01:24.726Z,0.60
2018-12-07T06:03:53.331Z,0.40
2018-12-07T06:06:21.879Z,0.40
2018-12-07T06:08:50.174Z,0.50
2018-12-07T06:11:18.524Z,0.50
2018-12-07T06:13:46.816Z,0.60
2018-12-07T06:16:15.830Z,0.45
2018-12-07T06:18:44.384Z,0.50
2018-12-07T06:21:13.094Z,0.60
2018-12-07T06:23:41.856Z,0.53
2018-12-07T06:26:10.202Z,0.60
2018-12-07T06:28:38.654Z,0.40
2018-12-07T06:31:06.959Z,0.60
2018-12-07T06:33:35.565Z,0.43
2018-12-07T06:36:03.909Z,0.60
2018-12-07T06:38:32.957Z,0.43
2018-12-07T06:41:01.541Z,0.70
2018-12-07T06:43:30.221Z,0.30
2018-12-07T06:45:58.980Z,0.50
2018-12-07T06:48:27.547Z,0.40
2018-12-07T06:50:55.942Z,0.50
2018-12-07T06:53:24.315Z,0.40
2018-12-07T06:55:53.000Z,0.40
2018-12-07T06:58:21.557Z,0.65
2018-12-07T07:00:50.376Z,0.73
2018-12-07T07:03:18.762Z,0.60
2018-12-07T07:05:47.660Z,0.70
2018-12-07T07:08:16.326Z,0.57
2018-12-07T07:10:44.888Z,0.50
2018-12-07T07:13:13.455Z,0.60
2018-12-07T07:15:41.802Z,0.40
2018-12-07T07:18:10.530Z,0.70
2018-12-07T07:20:38.890Z,0.40
2018-12-07T07:23:07.238Z,0.47
2018-12-07T07:25:35.866Z,0.60
2018-12-07T07:28:04.955Z,0.80
2018-12-07T07:35:40.677Z,0.60
2018-12-07T07:38:09.299Z,0.50
2018-12-07T07:40:37.961Z,0.57
2018-12-07T07:43:06.334Z,0.50
2018-12-07T07:45:34.942Z,0.60
2018-12-07T07:48:03.463Z,0.40
2018-12-07T07:50:32.055Z,0.53
2018-12-07T07:53:01.003Z,0.70
2018-12-07T07:55:29.401Z,0.50
2018-12-07T07:57:57.821Z,0.60
2018-12-07T08:00:26.354Z,0.73
2018-12-07T08:02:54.638Z,0.50
2018-12-07T08:05:23.226Z,0.70
2018-12-07T08:07:51.510Z,0.50
2018-12-07T08:10:19.790Z,0.70
2018-12-07T08:12:48.219Z,0.57
2018-12-07T08:15:17.213Z,0.60
2018-12-07T08:17:45.500Z,0.50
2018-12-07T08:20:14.206Z,0.43
2018-12-07T08:22:42.784Z,0.80
2018-12-07T08:25:11.515Z,0.70
2018-12-07T08:27:39.917Z,0.60
2018-12-07T08:30:10.663Z,0.50
2018-12-07T08:32:39.249Z,0.78
2018-12-07T08:35:08.664Z,0.50
2018-12-07T08:37:37.387Z,0.50
2018-12-07T08:40:07.662Z,0.53
2018-12-07T08:42:36.362Z,0.80
2018-12-07T08:45:07.298Z,0.40
2018-12-07T08:47:36.433Z,0.67
2018-12-07T08:50:06.535Z,0.63
2018-12-07T08:52:35.451Z,0.60
2018-12-07T08:55:04.736Z,0.50
2018-12-07T08:57:33.557Z,0.47
2018-12-07T09:00:02.852Z,0.80
2018-12-07T09:02:31.798Z,0.80
2018-12-07T09:05:00.334Z,0.60
2018-12-07T09:07:28.811Z,0.50
2018-12-07T09:09:57.361Z,0.77
2018-12-07T09:12:25.687Z,0.43
2018-12-07T09:14:54.240Z,0.42
2018-12-07T09:17:22.793Z,0.50
2018-12-07T09:19:51.810Z,0.40
2018-12-07T09:22:20.386Z,0.60
2018-12-07T09:24:48.707Z,0.50
2018-12-07T09:27:17.272Z,0.50
2018-12-07T09:29:45.569Z,0.43
2018-12-07T09:32:13.867Z,0.50
2018-12-07T09:34:42.581Z,0.50
2018-12-07T09:37:10.850Z,0.60
2018-12-07T09:39:39.570Z,0.43
2018-12-07T09:42:08.330Z,0.40
2018-12-07T09:44:36.598Z,0.50
2018-12-07T09:47:05.989Z,0.40
2018-12-07T09:49:34.322Z,0.40
2018-12-07T09:52:02.613Z,0.57
2018-12-07T09:54:32.132Z,0.95
2018-12-07T09:57:00.430Z,0.50
2018-12-07T09:59:29.638Z,0.68
2018-12-07T10:01:58.005Z,0.40
2018-12-07T10:04:26.976Z,0.50
2018-12-07T10:06:55.645Z,0.42
2018-12-07T10:09:24.378Z,0.60
2018-12-07T10:11:53.330Z,0.90
2018-12-07T10:14:21.891Z,0.50
2018-12-07T10:16:50.155Z,1.30
2018-12-07T10:19:18.713Z,0.70
2018-12-07T10:21:47.293Z,0.83
2018-12-07T10:24:16.092Z,0.50
2018-12-07T10:26:44.640Z,0.40
2018-12-07T10:29:13.191Z,0.90
2018-12-07T10:31:41.667Z,0.40
2018-12-07T10:34:12.702Z,0.57
2018-12-07T10:36:41.275Z,0.53
2018-12-07T10:39:10.222Z,0.80
2018-12-07T10:41:39.287Z,0.50
2018-12-07T10:44:07.877Z,0.57
2018-12-07T10:46:36.423Z,0.50
2018-12-07T10:49:04.793Z,0.67
2018-12-07T10:51:33.230Z,0.67
2018-12-07T10:54:02.182Z,2.10
2018-12-07T10:56:30.495Z,2.73
2018-12-07T10:58:59.224Z,1.60
2018-12-07T11:01:33.084Z,0.60
2018-12-07T11:04:07.015Z,0.50
2018-12-07T11:06:40.803Z,0.60
2018-12-07T11:09:15.005Z,0.53
2018-12-07T11:11:51.452Z,0.47
2018-12-07T11:14:25.691Z,0.50
2018-12-07T11:16:59.732Z,0.60
2018-12-07T11:19:33.342Z,0.50
2018-12-07T11:22:07.221Z,0.60
2018-12-07T11:24:40.684Z,0.50
2018-12-07T11:27:14.869Z,0.50
2018-12-07T11:29:48.706Z,0.57
2018-12-07T11:32:21.469Z,0.50
2018-12-07T11:34:54.542Z,0.60
2018-12-07T11:37:22.922Z,0.70
2018-12-07T11:39:51.472Z,0.60
2018-12-07T11:42:20.025Z,0.40
2018-12-07T11:44:48.589Z,0.50
2018-12-07T11:47:16.865Z,0.50
2018-12-07T11:49:45.434Z,0.80
2018-12-07T11:52:13.711Z,0.50
2018-12-07T11:54:42.250Z,0.40
2018-12-07T11:57:10.555Z,0.50
2018-12-07T11:59:39.447Z,0.40
2018-12-07T12:02:07.997Z,0.57
2018-12-07T12:04:36.275Z,0.67
2018-12-07T12:07:05.241Z,0.40
2018-12-07T12:09:33.962Z,0.50
2018-12-07T12:12:02.941Z,0.50
2018-12-07T12:14:31.259Z,0.57
2018-12-07T12:16:59.533Z,0.67
2018-12-07T12:19:28.833Z,0.30
2018-12-07T12:21:57.641Z,0.43
2018-12-07T12:24:25.925Z,0.60
2018-12-07T12:26:54.495Z,0.40
2018-12-07T12:29:22.933Z,0.50
2018-12-07T12:31:51.524Z,0.35
2018-12-07T12:34:19.931Z,0.47
2018-12-07T12:36:48.198Z,0.60
2018-12-07T12:39:16.763Z,0.50
2018-12-07T12:41:46.902Z,0.40
2018-12-07T12:44:15.639Z,0.47
2018-12-07T12:46:44.329Z,0.50
2018-12-07T12:49:12.877Z,0.50
2018-12-07T12:51:41.179Z,0.50
2018-12-07T12:54:09.459Z,0.47
2018-12-07T12:56:38.078Z,0.60
2018-12-07T12:59:06.772Z,0.57
2018-12-07T13:01:35.065Z,0.40
2018-12-07T13:04:04.057Z,0.40
2018-12-07T13:06:32.409Z,0.40
2018-12-07T13:09:00.729Z,0.50
2018-12-07T13:11:29.538Z,0.70
2018-12-07T13:13:58.050Z,0.50
2018-12-07T13:16:26.626Z,0.60
2018-12-07T13:18:54.966Z,0.60
2018-12-07T13:21:23.613Z,0.60
2018-12-07T13:23:51.931Z,0.80
2018-12-07T13:26:20.652Z,0.70
2018-12-07T13:28:48.937Z,0.63
2018-12-07T13:31:17.936Z,0.80
2018-12-07T13:33:46.505Z,0.70
2018-12-07T13:36:15.082Z,0.72
2018-12-07T13:38:43.637Z,0.73
2018-12-07T13:41:12.266Z,0.50
2018-12-07T13:43:41.217Z,0.70
2018-12-07T13:46:10.196Z,0.57
2018-12-07T13:48:39.084Z,0.77
2018-12-07T13:51:08.292Z,0.93
2018-12-07T13:53:38.174Z,0.43
2018-12-07T13:56:07.376Z,0.60
2018-12-07T13:58:35.960Z,0.83
2018-12-07T14:01:04.786Z,0.73
2018-12-07T14:03:33.672Z,0.65
2018-12-07T14:06:03.291Z,0.80
2018-12-07T14:08:32.030Z,0.70
2018-12-07T14:11:00.641Z,0.50
2018-12-07T14:13:29.259Z,0.70
2018-12-07T14:15:57.928Z,0.50
2018-12-07T14:18:26.704Z,0.50
2018-12-07T14:20:55.350Z,0.80
2018-12-07T14:23:23.929Z,1.70
2018-12-07T14:25:52.632Z,1.30
2018-12-07T14:28:21.323Z,1.20
2018-12-07T14:30:50.383Z,1.57
2018-12-07T14:33:18.948Z,2.37
2018-12-07T14:35:48.350Z,0.80
2018-12-07T14:38:16.838Z,0.90
2018-12-07T14:40:45.573Z,0.50
2018-12-07T14:43:14.530Z,0.60
2018-12-07T14:45:43.777Z,0.47
2018-12-07T14:48:12.405Z,0.43
2018-12-07T14:50:41.548Z,0.40
2018-12-07T14:53:10.416Z,0.60
2018-12-07T14:55:39.144Z,0.50
2018-12-07T14:58:07.861Z,0.50
2018-12-07T15:00:36.450Z,0.60
2018-12-07T15:03:05.395Z,0.80
2018-12-07T15:05:34.408Z,0.60
2018-12-07T15:08:03.338Z,0.50
2018-12-07T15:10:32.317Z,0.70
2018-12-07T15:13:02.697Z,0.68
2018-12-07T15:15:31.764Z,0.73
2018-12-07T15:18:00.581Z,0.60
2018-12-07T15:20:30.164Z,0.67
2018-12-07T15:22:59.441Z,0.60
2018-12-07T15:25:27.969Z,0.53
2018-12-07T15:27:56.840Z,0.62
2018-12-07T15:30:25.684Z,1.07
2018-12-07T15:32:54.693Z,1.00
2018-12-07T15:35:23.694Z,0.53
2018-12-07T15:37:52.407Z,0.60
2018-12-07T15:40:21.093Z,0.80
2018-12-07T15:42:49.883Z,0.80
2018-12-07T15:45:18.899Z,0.70
2018-12-07T15:47:47.762Z,0.85
2018-12-07T15:50:16.322Z,0.60
2018-12-07T15:52:45.568Z,0.83
2018-12-07T15:55:13.996Z,0.87
2018-12-07T15:57:42.811Z,0.83
2018-12-07T16:00:11.758Z,0.90
2018-12-07T16:02:40.425Z,0.83
2018-12-07T16:05:09.885Z,0.70
2018-12-07T16:07:38.642Z,0.63
2018-12-07T16:10:09.264Z,1.07
2018-12-07T16:12:38.030Z,0.90
2018-12-07T16:15:07.291Z,1.10
2018-12-07T16:17:35.648Z,0.63
2018-12-07T16:20:08.279Z,0.70
2018-12-07T16:22:36.826Z,0.77
2018-12-07T16:25:06.107Z,0.50
2018-12-07T16:27:34.829Z,0.83
2018-12-07T16:30:04.329Z,0.57
2018-12-07T16:32:33.551Z,0.80
2018-12-07T16:35:02.082Z,0.90
2018-12-07T16:37:30.772Z,0.93
2018-12-07T16:39:59.538Z,1.10
2018-12-07T16:42:27.949Z,1.00
2018-12-07T16:44:56.722Z,1.00
2018-12-07T16:47:26.034Z,1.12
2018-12-07T16:49:54.907Z,1.20
2018-12-07T16:52:23.661Z,1.10
2018-12-07T16:54:52.487Z,1.20
2018-12-07T16:57:21.207Z,1.07
2018-12-07T16:59:50.159Z,1.33
2018-12-07T17:02:19.014Z,1.10
2018-12-07T17:04:47.619Z,1.50
2018-12-07T17:07:16.587Z,1.05
2018-12-07T17:09:45.351Z,1.50
2018-12-07T17:12:13.972Z,1.42
2018-12-07T17:14:42.472Z,1.50
2018-12-07T17:17:11.347Z,1.30
2018-12-07T17:19:40.109Z,1.40
2018-12-07T17:22:09.204Z,1.73
2018-12-07T17:24:38.132Z,1.60
2018-12-07T17:27:07.087Z,1.50
2018-12-07T17:29:36.041Z,1.20
2018-12-07T17:32:04.847Z,1.60
2018-12-07T17:34:34.038Z,1.40
2018-12-07T17:37:02.934Z,1.55
2018-12-07T17:39:31.873Z,1.35
2018-12-07T17:42:00.661Z,1.90
2018-12-07T17:44:28.986Z,1.53
2018-12-07T17:46:58.144Z,1.30
2018-12-07T17:49:26.805Z,1.73
2018-12-07T17:51:55.721Z,1.30
2018-12-07T17:54:24.545Z,1.57
2018-12-07T17:56:53.123Z,1.13
2018-12-07T17:59:21.877Z,1.80
2018-12-07T18:01:50.179Z,1.87
2018-12-07T18:04:18.523Z,1.60
2018-12-07T18:06:46.825Z,1.97
2018-12-07T18:09:15.431Z,2.27
2018-12-07T18:11:43.995Z,1.90
2018-12-07T18:14:12.279Z,2.03
2018-12-07T18:16:41.599Z,1.70
2018-12-07T18:19:10.069Z,2.00
2018-12-07T18:21:39.623Z,2.00
2018-12-07T18:24:09.085Z,2.47
2018-12-07T18:26:37.800Z,2.23
2018-12-07T18:29:06.647Z,3.40
2018-12-07T18:31:35.409Z,2.33
2018-12-07T18:34:04.808Z,2.50
2018-12-07T18:36:33.168Z,2.20
2018-12-07T18:39:01.870Z,2.27
2018-12-07T18:41:30.904Z,2.40
2018-12-07T18:43:59.913Z,2.20
2018-12-07T18:46:28.537Z,2.60
2018-12-07T18:48:57.116Z,2.37
2018-12-07T18:51:26.072Z,2.67
2018-12-07T18:53:55.030Z,2.43
2018-12-07T18:56:24.463Z,2.70
2018-12-07T18:58:53.513Z,2.47
2018-12-07T19:01:22.220Z,3.00
2018-12-07T19:03:51.283Z,2.67
2018-12-07T19:06:20.470Z,2.87
2018-12-07T19:08:49.451Z,3.00
2018-12-07T19:11:18.029Z,3.10
2018-12-07T19:13:47.091Z,4.30
2018-12-07T19:16:15.467Z,3.90
2018-12-07T19:18:44.277Z,4.20
2018-12-07T19:21:13.616Z,3.25
2018-12-07T19:23:42.335Z,3.47
2018-12-07T19:26:11.498Z,3.60
2018-12-07T19:28:40.275Z,3.43
2018-12-07T19:31:09.143Z,3.73
2018-12-07T19:33:37.785Z,3.20
2018-12-07T19:36:07.336Z,4.40
2018-12-07T19:38:35.935Z,2.97
2018-12-07T19:41:05.012Z,3.60
2018-12-07T19:43:34.111Z,3.58
2018-12-07T19:46:03.750Z,3.40
2018-12-07T19:48:32.630Z,4.10
2018-12-07T19:51:06.171Z,3.40
2018-12-07T19:53:35.496Z,3.05
2018-12-07T19:56:05.372Z,4.15
2018-12-07T19:58:35.015Z,3.87
2018-12-07T20:01:04.282Z,3.70
2018-12-07T20:03:33.391Z,4.30
2018-12-07T20:06:02.732Z,4.40
2018-12-07T20:08:31.710Z,4.03
2018-12-07T20:11:00.182Z,4.07
2018-12-07T20:13:28.875Z,3.50
2018-12-07T20:15:57.503Z,4.00
2018-12-07T20:18:26.552Z,3.70
2018-12-07T20:20:55.839Z,3.70
2018-12-07T20:23:24.566Z,3.20
2018-12-07T20:25:53.471Z,3.67
2018-12-07T20:28:22.311Z,3.87
2018-12-07T20:30:51.146Z,3.50
2018-12-07T20:33:20.437Z,3.67
2018-12-07T20:35:49.395Z,3.23
2018-12-07T20:38:18.391Z,4.10
2018-12-07T20:40:47.226Z,3.72
2018-12-07T20:43:15.656Z,4.00
2018-12-07T20:45:44.264Z,3.27
2018-12-07T20:48:12.815Z,3.60
2018-12-07T20:50:41.596Z,2.70
2018-12-07T20:53:10.553Z,2.87
2018-12-07T20:55:39.625Z,2.40
2018-12-07T20:58:08.931Z,2.72
2018-12-07T21:00:37.615Z,2.10
2018-12-07T21:03:06.956Z,1.83
2018-12-07T21:07:51.086Z,2.10
2018-12-07T21:11:00.802Z,2.00
2018-12-07T21:13:40.785Z,1.63
2018-12-07T21:16:46.020Z,1.53
2018-12-07T21:19:15.101Z,1.20
2018-12-07T21:21:43.987Z,1.13
2018-12-07T21:24:12.438Z,1.30
2018-12-07T21:26:41.121Z,1.20
2018-12-07T21:29:09.596Z,1.03
2018-12-07T21:31:38.257Z,0.90
2018-12-07T21:34:14.033Z,0.73
2018-12-07T21:36:45.194Z,1.00
2018-12-07T21:39:21.139Z,0.70
2018-12-07T21:41:50.347Z,0.80
2018-12-07T21:44:18.831Z,0.77
2018-12-07T21:46:47.719Z,0.60
2018-12-07T21:49:16.388Z,0.50
2018-12-07T21:52:11.303Z,0.67
2018-12-07T21:54:40.507Z,0.50
2018-12-07T21:57:09.180Z,0.50
2018-12-07T21:59:38.152Z,0.40
2018-12-07T22:02:07.271Z,0.43
2018-12-07T22:04:36.532Z,0.50
2018-12-07T22:07:05.535Z,0.40
2018-12-07T22:09:34.481Z,0.50
2018-12-07T22:12:03.800Z,0.60
2018-12-07T22:14:32.758Z,0.50
2018-12-07T22:17:01.180Z,0.50
2018-12-07T22:19:30.281Z,0.40
2018-12-07T22:21:58.875Z,0.40
2018-12-07T22:24:27.450Z,0.40
2018-12-07T22:26:55.903Z,0.40
2018-12-07T22:29:25.072Z,0.40
2018-12-07T22:31:53.687Z,0.60
2018-12-07T22:34:22.425Z,0.40
2018-12-07T22:36:51.436Z,0.40
2018-12-07T22:39:20.382Z,0.40
2018-12-07T22:41:49.178Z,0.40
2018-12-07T22:44:18.335Z,0.40
2018-12-07T22:46:47.190Z,0.40
2018-12-07T22:49:15.961Z,0.40
2018-12-07T22:51:44.535Z,0.50
2018-12-07T22:54:13.197Z,0.40
2018-12-07T22:56:41.834Z,0.70
2018-12-07T22:59:10.848Z,0.40
